N43CB PHTO-PHKO
Flight info
| Callsign | N43CB |
|---|---|
| Flight time | 0h 25m |
| Altitude | 12000 |
| Route | 19N55 19N156W |
| Aircraft | C25C/M-VGDW/C |
Departure
| Time | 2026-05-06 03:22 |
|---|---|
| Airport | Hilo International Airport (PHTO) |
Arrival
| Time | 2026-05-06 03:48 |
|---|---|
| Airport | Ellison Onizuka Kona International Airport at Keāhole (PHKO) |
| Time | Latitude | Longitude | Altitude | Speed | Heading |
|---|---|---|---|---|---|
| 2026-05-06 03:11 | 19.71924 | -155.05852 | 32 ft | 0 kts | 314° |
| 2026-05-06 03:17 | 19.71913 | -155.05840 | 32 ft | 4 kts | 314° |
| 2026-05-06 03:18 | 19.71895 | -155.05821 | 32 ft | 3 kts | 314° |
| 2026-05-06 03:18 | 19.71881 | -155.05805 | 33 ft | 3 kts | 314° |
| 2026-05-06 03:18 | 19.71880 | -155.05804 | 33 ft | 0 kts | 314° |
| 2026-05-06 03:18 | 19.71871 | -155.05799 | 33 ft | 2 kts | 11° |
| 2026-05-06 03:19 | 19.71865 | -155.05801 | 33 ft | 0 kts | 42° |
| 2026-05-06 03:20 | 19.71867 | -155.05800 | 33 ft | 4 kts | 42° |
| 2026-05-06 03:21 | 19.71947 | -155.05742 | 32 ft | 19 kts | 4° |
| 2026-05-06 03:21 | 19.72055 | -155.05761 | 30 ft | 15 kts | 1° |
| 2026-05-06 03:21 | 19.72144 | -155.05735 | 31 ft | 14 kts | 76° |
| 2026-05-06 03:21 | 19.72147 | -155.05600 | 32 ft | 35 kts | 90° |
| 2026-05-06 03:22 | 19.72146 | -155.05097 | 32 ft | 105 kts | 90° |
| 2026-05-06 03:22 | 19.72150 | -155.04172 | 211 ft | 132 kts | 90° |
| 2026-05-06 03:22 | 19.72186 | -155.03134 | 665 ft | 161 kts | 86° |
| 2026-05-06 03:22 | 19.72275 | -155.01746 | 1132 ft | 210 kts | 89° |
| 2026-05-06 03:23 | 19.72304 | -155.00142 | 2014 ft | 229 kts | 90° |
| 2026-05-06 03:23 | 19.71802 | -154.98529 | 2979 ft | 239 kts | 129° |
| 2026-05-06 03:23 | 19.70381 | -154.97624 | 3980 ft | 246 kts | 167° |
| 2026-05-06 03:23 | 19.68694 | -154.97429 | 5047 ft | 250 kts | 180° |
| 2026-05-06 03:24 | 19.66940 | -154.97554 | 6058 ft | 256 kts | 186° |
| 2026-05-06 03:24 | 19.65142 | -154.97719 | 6994 ft | 261 kts | 184° |
| 2026-05-06 03:24 | 19.63320 | -154.97788 | 8020 ft | 262 kts | 182° |
| 2026-05-06 03:24 | 19.61485 | -154.97832 | 9001 ft | 265 kts | 183° |
| 2026-05-06 03:25 | 19.59628 | -154.97897 | 9910 ft | 270 kts | 183° |
| 2026-05-06 03:25 | 19.57736 | -154.97969 | 10682 ft | 274 kts | 183° |
| 2026-05-06 03:25 | 19.55818 | -154.98036 | 11439 ft | 278 kts | 183° |
| 2026-05-06 03:25 | 19.53868 | -154.98104 | 12170 ft | 282 kts | 183° |
| 2026-05-06 03:26 | 19.51890 | -154.98174 | 12870 ft | 287 kts | 183° |
| 2026-05-06 03:26 | 19.49908 | -154.98431 | 13548 ft | 289 kts | 200° |
| 2026-05-06 03:26 | 19.48171 | -154.99497 | 14157 ft | 291 kts | 222° |
| 2026-05-06 03:26 | 19.46962 | -155.01215 | 14703 ft | 295 kts | 245° |
| 2026-05-06 03:27 | 19.46480 | -155.03355 | 14982 ft | 309 kts | 268° |
| 2026-05-06 03:27 | 19.46509 | -155.05710 | 15010 ft | 330 kts | 271° |
| 2026-05-06 03:27 | 19.46578 | -155.08209 | 15014 ft | 348 kts | 271° |
| 2026-05-06 03:27 | 19.46635 | -155.10830 | 15019 ft | 364 kts | 270° |
| 2026-05-06 03:28 | 19.46673 | -155.13536 | 15018 ft | 367 kts | 270° |
| 2026-05-06 03:28 | 19.46712 | -155.16206 | 15022 ft | 358 kts | 270° |
| 2026-05-06 03:28 | 19.46756 | -155.18810 | 15027 ft | 350 kts | 270° |
| 2026-05-06 03:28 | 19.46800 | -155.21360 | 15031 ft | 344 kts | 270° |
| 2026-05-06 03:29 | 19.46838 | -155.23874 | 15034 ft | 339 kts | 270° |
| 2026-05-06 03:29 | 19.46877 | -155.26364 | 15039 ft | 340 kts | 270° |
| 2026-05-06 03:29 | 19.46916 | -155.28892 | 15042 ft | 347 kts | 270° |
| 2026-05-06 03:29 | 19.46957 | -155.31468 | 15052 ft | 352 kts | 270° |
| 2026-05-06 03:30 | 19.46997 | -155.34081 | 15066 ft | 357 kts | 270° |
| 2026-05-06 03:30 | 19.47037 | -155.36723 | 15089 ft | 360 kts | 270° |
| 2026-05-06 03:30 | 19.47077 | -155.39388 | 15100 ft | 363 kts | 270° |
| 2026-05-06 03:30 | 19.47118 | -155.42075 | 15118 ft | 366 kts | 270° |
| 2026-05-06 03:31 | 19.47157 | -155.44771 | 15219 ft | 364 kts | 270° |
| 2026-05-06 03:31 | 19.47196 | -155.47440 | 15402 ft | 362 kts | 270° |
| 2026-05-06 03:31 | 19.47235 | -155.50116 | 15682 ft | 364 kts | 271° |
| 2026-05-06 03:31 | 19.47273 | -155.52798 | 16031 ft | 365 kts | 270° |
| 2026-05-06 03:32 | 19.47312 | -155.55491 | 16361 ft | 366 kts | 271° |
| 2026-05-06 03:32 | 19.47350 | -155.58200 | 16671 ft | 368 kts | 270° |
| 2026-05-06 03:32 | 19.47388 | -155.60923 | 16957 ft | 371 kts | 270° |
| 2026-05-06 03:32 | 19.47425 | -155.63677 | 17077 ft | 378 kts | 271° |
| 2026-05-06 03:33 | 19.47464 | -155.66488 | 17102 ft | 384 kts | 271° |
| 2026-05-06 03:33 | 19.47502 | -155.69302 | 17105 ft | 374 kts | 270° |
| 2026-05-06 03:33 | 19.47526 | -155.71108 | 16809 ft | 369 kts | 270° |
| 2026-05-06 03:33 | 19.47561 | -155.73832 | 16226 ft | 369 kts | 270° |
| 2026-05-06 03:34 | 19.47596 | -155.76537 | 15720 ft | 366 kts | 270° |
| 2026-05-06 03:34 | 19.47632 | -155.79221 | 15212 ft | 363 kts | 270° |
| 2026-05-06 03:34 | 19.47666 | -155.81890 | 14737 ft | 361 kts | 270° |
| 2026-05-06 03:34 | 19.47700 | -155.84542 | 14277 ft | 359 kts | 270° |
| 2026-05-06 03:35 | 19.47732 | -155.87178 | 13826 ft | 357 kts | 270° |
| 2026-05-06 03:35 | 19.47765 | -155.89803 | 13340 ft | 355 kts | 270° |
| 2026-05-06 03:35 | 19.48086 | -155.92378 | 12835 ft | 355 kts | 289° |
| 2026-05-06 03:35 | 19.49455 | -155.94496 | 12718 ft | 345 kts | 316° |
| 2026-05-06 03:36 | 19.51350 | -155.95944 | 12714 ft | 329 kts | 329° |
| 2026-05-06 03:36 | 19.53332 | -155.97050 | 12721 ft | 316 kts | 332° |
| 2026-05-06 03:36 | 19.55252 | -155.98112 | 12542 ft | 309 kts | 329° |
| 2026-05-06 03:36 | 19.57093 | -155.99293 | 12198 ft | 309 kts | 326° |
| 2026-05-06 03:37 | 19.58914 | -156.00505 | 11885 ft | 309 kts | 327° |
| 2026-05-06 03:37 | 19.60758 | -156.01672 | 11563 ft | 308 kts | 328° |
| 2026-05-06 03:37 | 19.62577 | -156.02812 | 11174 ft | 308 kts | 328° |
| 2026-05-06 03:37 | 19.64411 | -156.03976 | 10766 ft | 307 kts | 328° |
| 2026-05-06 03:38 | 19.66241 | -156.05142 | 10319 ft | 307 kts | 328° |
| 2026-05-06 03:38 | 19.68067 | -156.06305 | 9893 ft | 306 kts | 328° |
| 2026-05-06 03:38 | 19.69883 | -156.07457 | 9387 ft | 303 kts | 328° |
| 2026-05-06 03:38 | 19.71680 | -156.08600 | 8884 ft | 299 kts | 328° |
| 2026-05-06 03:39 | 19.73457 | -156.09730 | 8332 ft | 296 kts | 328° |
| 2026-05-06 03:39 | 19.75199 | -156.10838 | 7735 ft | 288 kts | 328° |
| 2026-05-06 03:39 | 19.76898 | -156.11920 | 7136 ft | 281 kts | 329° |
| 2026-05-06 03:39 | 19.78688 | -156.12644 | 6557 ft | 275 kts | 353° |
| 2026-05-06 03:40 | 19.80562 | -156.12675 | 6070 ft | 265 kts | 2° |
| 2026-05-06 03:40 | 19.82376 | -156.12593 | 5576 ft | 258 kts | 2° |
| 2026-05-06 03:40 | 19.84149 | -156.12487 | 5086 ft | 252 kts | 3° |
| 2026-05-06 03:40 | 19.85883 | -156.12371 | 4598 ft | 248 kts | 3° |
| 2026-05-06 03:41 | 19.87590 | -156.12252 | 4102 ft | 244 kts | 3° |
| 2026-05-06 03:41 | 19.89275 | -156.12137 | 3614 ft | 241 kts | 3° |
| 2026-05-06 03:41 | 19.90942 | -156.12024 | 3144 ft | 238 kts | 4° |
| 2026-05-06 03:41 | 19.92432 | -156.11485 | 3016 ft | 222 kts | 40° |
| 2026-05-06 03:42 | 19.93124 | -156.10122 | 3025 ft | 204 kts | 80° |
| 2026-05-06 03:42 | 19.93215 | -156.08727 | 3032 ft | 184 kts | 89° |
| 2026-05-06 03:42 | 19.93163 | -156.07398 | 3012 ft | 177 kts | 93° |
| 2026-05-06 03:42 | 19.93048 | -156.06085 | 3005 ft | 181 kts | 104° |
| 2026-05-06 03:43 | 19.92492 | -156.04879 | 3012 ft | 183 kts | 120° |
| 2026-05-06 03:43 | 19.91866 | -156.03698 | 3012 ft | 184 kts | 119° |
| 2026-05-06 03:43 | 19.91070 | -156.02652 | 2986 ft | 186 kts | 148° |
| 2026-05-06 03:43 | 19.89822 | -156.02513 | 2838 ft | 184 kts | 198° |
| 2026-05-06 03:44 | 19.88935 | -156.03405 | 2684 ft | 178 kts | 244° |
| 2026-05-06 03:44 | 19.88112 | -156.04333 | 2518 ft | 178 kts | 202° |
| 2026-05-06 03:44 | 19.86892 | -156.04383 | 2379 ft | 176 kts | 174° |
| 2026-05-06 03:44 | 19.85680 | -156.04226 | 2208 ft | 177 kts | 174° |
| 2026-05-06 03:45 | 19.84441 | -156.04065 | 1912 ft | 182 kts | 173° |
| 2026-05-06 03:45 | 19.83187 | -156.03867 | 1583 ft | 181 kts | 171° |
| 2026-05-06 03:45 | 19.81948 | -156.03854 | 1341 ft | 175 kts | 185° |
| 2026-05-06 03:45 | 19.80743 | -156.03947 | 1122 ft | 173 kts | 187° |
| 2026-05-06 03:46 | 19.79543 | -156.04057 | 902 ft | 173 kts | 188° |
| 2026-05-06 03:46 | 19.78374 | -156.04164 | 686 ft | 155 kts | 186° |
| 2026-05-06 03:46 | 19.77388 | -156.04249 | 492 ft | 133 kts | 187° |
| 2026-05-06 03:46 | 19.76507 | -156.04326 | 298 ft | 124 kts | 186° |
| 2026-05-06 03:47 | 19.75688 | -156.04402 | 159 ft | 115 kts | 186° |
| 2026-05-06 03:47 | 19.74912 | -156.04475 | 53 ft | 107 kts | 185° |
| 2026-05-06 03:47 | 19.74225 | -156.04537 | 46 ft | 89 kts | 185° |
| 2026-05-06 03:47 | 19.73717 | -156.04581 | 44 ft | 60 kts | 185° |
| 2026-05-06 03:48 | 19.73359 | -156.04613 | 43 ft | 45 kts | 185° |
| 2026-05-06 03:48 | 19.73079 | -156.04637 | 42 ft | 37 kts | 185° |
| 2026-05-06 03:48 | 19.72847 | -156.04630 | 41 ft | 32 kts | 166° |
| 2026-05-06 03:48 | 19.72697 | -156.04569 | 41 ft | 16 kts | 154° |
| 2026-05-06 03:49 | 19.72651 | -156.04466 | 41 ft | 17 kts | 94° |